Time;durP1;ratioP1;P1;durP2;ratioP2;P2;SDS_P1;SDS_P2;PMS_P1;PMS_P2;Temp;Humidity;BMP_temperature;BMP_pressure;BME280_temperature;BME280_humidity;BME280_pressure;Samples;Min_cycle;Max_cycle;Signal;HPM_P1;HPM_P2
2022/03/16 00:00:19;;;;;;;;;;;11.10;99.90;;;;;;6244146;23;19972;-67
2022/03/16 00:02:45;;;;;;;;;;;11.00;99.90;;;;;;6217051;23;19904;-67
2022/03/16 00:05:12;;;;;;;;;;;11.00;99.90;;;;;;6244402;23;19915;-68
2022/03/16 00:07:38;;;;;;;;;;;11.00;99.90;;;;;;6244727;23;20237;-68
2022/03/16 00:10:05;;;;;;;;;;;11.00;99.90;;;;;;6244067;23;19987;-68
2022/03/16 00:12:31;;;;;;;;;;;10.90;99.90;;;;;;6244018;23;19903;-68
2022/03/16 00:14:56;;;;;;;;;;;10.90;99.90;;;;;;6243753;23;19966;-68
2022/03/16 00:17:22;;;;;;;;;;;10.90;99.90;;;;;;6243189;23;19912;-68
2022/03/16 00:19:48;;;;;;;;;;;10.90;99.90;;;;;;6242875;23;20109;-68
2022/03/16 00:22:14;;;;;;;;;;;10.90;99.90;;;;;;6216539;23;19903;-68
2022/03/16 00:24:39;;;;;;;;;;;10.90;99.90;;;;;;6243975;23;19985;-67
2022/03/16 00:27:05;;;;;;;;;;;10.80;99.90;;;;;;6243676;23;19918;-68
2022/03/16 00:29:31;;;;;;;;;;;10.80;99.90;;;;;;6243424;23;19904;-67
2022/03/16 00:32:00;;;;;;;;;;;10.90;99.90;;;;;;6243813;23;19911;-68
2022/03/16 00:34:26;;;;;;;;;;;10.90;99.90;;;;;;6244367;23;20288;-68
2022/03/16 00:36:52;;;;;;;;;;;10.90;99.90;;;;;;6243745;23;19938;-68
2022/03/16 00:39:18;;;;;;;;;;;11.00;99.90;;;;;;6243629;23;19903;-68
2022/03/16 00:41:44;;;;;;;;;;;10.90;99.90;;;;;;6243954;23;20370;-67
2022/03/16 00:44:10;;;;;;;;;;;10.90;99.90;;;;;;6243595;23;19931;-67
2022/03/16 00:46:36;;;;;;;;;;;10.90;99.90;;;;;;6245315;23;19922;-67
2022/03/16 00:49:03;;;;;;;;;;;10.90;99.90;;;;;;6246218;23;19969;-67
2022/03/16 00:51:29;;;;;;;;;;;10.90;99.90;;;;;;6245715;23;19904;-68
2022/03/16 00:53:55;;;;;;;;;;;10.90;99.90;;;;;;6245864;23;19904;-68
2022/03/16 00:56:20;;;;;;;;;;;10.80;99.90;;;;;;6243629;23;20065;-67
2022/03/16 00:58:46;;;;;;;;;;;10.80;99.90;;;;;;6218540;23;19907;-68
2022/03/16 01:01:12;;;;;;;;;;;10.80;99.90;;;;;;6218540;23;19904;-67
2022/03/16 01:03:41;;;;;;;;;;;10.80;99.90;;;;;;6245481;23;19973;-68
2022/03/16 01:06:15;;;;;;;;;;;10.90;99.90;;;;;;6244852;23;19912;-68
2022/03/16 01:08:44;;;;;;;;;;;10.90;99.90;;;;;;6245505;23;19903;-68
2022/03/16 01:11:11;;;;;;;;;;;10.90;99.90;;;;;;6245432;23;19907;-67
2022/03/16 01:13:37;;;;;;;;;;;10.90;99.90;;;;;;6245984;23;19904;-68
2022/03/16 01:16:03;;;;;;;;;;;10.90;99.90;;;;;;6245577;23;19904;-67
2022/03/16 01:18:29;;;;;;;;;;;10.90;99.90;;;;;;6245375;23;19907;-68
2022/03/16 01:20:55;;;;;;;;;;;10.90;99.90;;;;;;6245336;23;20037;-68
2022/03/16 01:23:21;;;;;;;;;;;10.90;99.90;;;;;;6245744;23;19926;-68
2022/03/16 01:25:46;;;;;;;;;;;10.90;99.90;;;;;;6245414;23;19911;-68
2022/03/16 01:28:12;;;;;;;;;;;10.90;99.90;;;;;;6245722;23;20323;-68
2022/03/16 01:30:38;;;;;;;;;;;10.90;99.90;;;;;;6245487;23;20298;-68
2022/03/16 01:33:04;;;;;;;;;;;10.90;99.90;;;;;;6245011;23;20390;-68
2022/03/16 01:35:30;;;;;;;;;;;10.90;99.90;;;;;;6245581;23;19982;-67
2022/03/16 01:37:56;;;;;;;;;;;10.90;99.90;;;;;;6245085;23;20208;-68
2022/03/16 01:40:22;;;;;;;;;;;10.90;99.90;;;;;;6245205;23;19904;-67
2022/03/16 01:42:48;;;;;;;;;;;10.90;99.90;;;;;;6245583;23;19911;-67
2022/03/16 01:45:13;;;;;;;;;;;10.90;99.90;;;;;;6245108;23;19954;-68
2022/03/16 01:47:39;;;;;;;;;;;10.90;99.90;;;;;;6245840;23;20030;-68
2022/03/16 01:50:06;;;;;;;;;;;10.90;99.90;;;;;;6245272;23;19918;-68
2022/03/16 01:52:32;;;;;;;;;;;10.90;99.90;;;;;;6218470;23;19950;-67
2022/03/16 01:54:58;;;;;;;;;;;10.90;99.90;;;;;;6245089;23;19904;-67
2022/03/16 01:57:24;;;;;;;;;;;10.90;99.90;;;;;;6244759;23;19974;-68
2022/03/16 01:59:53;;;;;;;;;;;10.80;99.90;;;;;;6244734;23;19938;-67
2022/03/16 02:02:19;;;;;;;;;;;10.80;99.90;;;;;;6245315;23;19903;-67
2022/03/16 02:04:44;;;;;;;;;;;10.80;99.90;;;;;;6245090;23;20303;-68
2022/03/16 02:07:10;;;;;;;;;;;10.80;99.90;;;;;;6245140;23;19999;-67
2022/03/16 02:09:36;;;;;;;;;;;10.70;99.90;;;;;;6244866;23;19982;-68
2022/03/16 02:12:02;;;;;;;;;;;10.70;99.90;;;;;;6217750;23;19904;-68
2022/03/16 02:14:29;;;;;;;;;;;10.70;99.90;;;;;;6244892;23;19908;-68
2022/03/16 02:16:56;;;;;;;;;;;10.70;99.90;;;;;;6245282;23;19903;-69
2022/03/16 02:19:23;;;;;;;;;;;10.60;99.90;;;;;;6244796;23;19903;-68
2022/03/16 02:21:52;;;;;;;;;;;10.70;99.90;;;;;;6245059;23;19904;-68
2022/03/16 02:24:18;;;;;;;;;;;10.70;99.90;;;;;;6244749;23;19904;-67
2022/03/16 02:26:44;;;;;;;;;;;10.70;99.90;;;;;;6244641;23;19911;-68
2022/03/16 02:29:10;;;;;;;;;;;10.70;99.90;;;;;;6245082;23;19911;-67
2022/03/16 02:31:36;;;;;;;;;;;10.70;99.90;;;;;;6244756;23;19956;-68
2022/03/16 02:34:01;;;;;;;;;;;10.70;99.90;;;;;;6217696;23;19978;-68
2022/03/16 02:36:27;;;;;;;;;;;10.70;99.90;;;;;;6217616;23;19978;-68
2022/03/16 02:38:53;;;;;;;;;;;10.70;99.90;;;;;;6245171;23;20049;-68
2022/03/16 02:41:19;;;;;;;;;;;10.80;99.90;;;;;;6244700;23;19911;-68
2022/03/16 02:43:45;;;;;;;;;;;10.80;99.90;;;;;;6245180;23;19939;-68
2022/03/16 02:46:10;;;;;;;;;;;10.80;99.90;;;;;;6244577;23;19911;-68
2022/03/16 02:48:36;;;;;;;;;;;10.80;99.90;;;;;;6244658;23;19919;-68
2022/03/16 02:51:03;;;;;;;;;;;10.80;99.90;;;;;;6244771;23;19957;-68
2022/03/16 02:53:28;;;;;;;;;;;10.90;99.90;;;;;;6244339;23;20311;-69
2022/03/16 02:55:54;;;;;;;;;;;10.80;99.90;;;;;;6244881;23;19903;-68
2022/03/16 02:58:20;;;;;;;;;;;10.80;99.90;;;;;;6244284;23;19946;-67
2022/03/16 03:00:46;;;;;;;;;;;10.80;99.90;;;;;;6244714;23;19903;-68
2022/03/16 03:03:12;;;;;;;;;;;10.70;99.90;;;;;;6245044;23;20021;-68
2022/03/16 03:05:38;;;;;;;;;;;10.80;99.90;;;;;;6244413;23;19903;-68
2022/03/16 03:08:04;;;;;;;;;;;10.80;99.90;;;;;;6243993;23;19911;-68
2022/03/16 03:10:30;;;;;;;;;;;10.80;99.90;;;;;;6244381;23;19946;-67
2022/03/16 03:12:56;;;;;;;;;;;10.70;99.90;;;;;;6244804;23;19908;-68
2022/03/16 03:15:22;;;;;;;;;;;10.70;99.90;;;;;;6244592;23;20209;-68
2022/03/16 03:17:48;;;;;;;;;;;10.70;99.90;;;;;;6244641;23;20353;-67
2022/03/16 03:20:13;;;;;;;;;;;10.70;99.90;;;;;;6244204;23;20005;-68
2022/03/16 03:22:40;;;;;;;;;;;10.70;99.90;;;;;;6244195;23;20070;-68
2022/03/16 03:25:09;;;;;;;;;;;10.70;99.90;;;;;;6244538;23;19904;-68
2022/03/16 03:27:34;;;;;;;;;;;10.60;99.90;;;;;;6244389;23;19915;-69
2022/03/16 03:30:00;;;;;;;;;;;10.60;99.90;;;;;;6244220;23;19903;-67
2022/03/16 03:32:26;;;;;;;;;;;10.70;99.90;;;;;;6244351;23;19903;-67
2022/03/16 03:34:53;;;;;;;;;;;10.70;99.90;;;;;;6244633;23;19978;-67
2022/03/16 03:37:19;;;;;;;;;;;10.70;99.90;;;;;;6244177;23;20316;-67
2022/03/16 03:39:45;;;;;;;;;;;10.80;99.90;;;;;;6244250;23;19910;-68
2022/03/16 03:42:11;;;;;;;;;;;10.80;99.90;;;;;;6244042;23;20292;-68
2022/03/16 03:44:37;;;;;;;;;;;10.90;99.90;;;;;;6243832;23;19910;-67
2022/03/16 03:47:04;;;;;;;;;;;10.90;99.90;;;;;;6243247;23;19972;-67
2022/03/16 03:49:31;;;;;;;;;;;10.90;99.90;;;;;;6243162;23;20312;-67
2022/03/16 03:51:57;;;;;;;;;;;10.90;99.90;;;;;;6243654;23;19911;-68
2022/03/16 03:54:22;;;;;;;;;;;11.00;99.90;;;;;;6243188;23;19903;-69
2022/03/16 03:56:48;;;;;;;;;;;11.00;99.90;;;;;;6243940;23;20342;-68
2022/03/16 03:59:14;;;;;;;;;;;11.10;99.90;;;;;;6244468;23;19983;-69
2022/03/16 04:01:40;;;;;;;;;;;11.10;99.90;;;;;;6244347;23;19911;-68
2022/03/16 04:04:07;;;;;;;;;;;11.20;99.90;;;;;;6244198;23;19904;-69
2022/03/16 04:06:33;;;;;;;;;;;11.20;99.90;;;;;;6244177;23;19911;-68
2022/03/16 04:08:59;;;;;;;;;;;11.30;99.90;;;;;;6244540;23;19919;-69
2022/03/16 04:11:25;;;;;;;;;;;11.40;99.90;;;;;;6245109;23;19957;-69
2022/03/16 04:13:50;;;;;;;;;;;11.30;99.90;;;;;;6244510;23;19998;-69
2022/03/16 04:16:16;;;;;;;;;;;11.30;99.90;;;;;;6244267;23;20351;-69
2022/03/16 04:18:42;;;;;;;;;;;11.30;99.90;;;;;;6244795;23;19908;-68
2022/03/16 04:21:08;;;;;;;;;;;11.30;99.90;;;;;;6244124;23;19908;-69
2022/03/16 04:23:34;;;;;;;;;;;11.30;99.90;;;;;;6244577;23;19910;-69
2022/03/16 04:25:59;;;;;;;;;;;11.20;99.90;;;;;;6245034;23;19993;-68
2022/03/16 04:28:25;;;;;;;;;;;11.30;99.90;;;;;;6245852;23;19974;-69
2022/03/16 04:30:51;;;;;;;;;;;11.20;99.90;;;;;;6245349;23;20312;-69
2022/03/16 04:33:17;;;;;;;;;;;11.20;99.90;;;;;;6245092;23;19984;-69
2022/03/16 04:35:43;;;;;;;;;;;11.20;99.90;;;;;;6244901;23;20023;-69
2022/03/16 04:38:09;;;;;;;;;;;11.20;99.90;;;;;;6245004;23;19911;-69
2022/03/16 04:40:35;;;;;;;;;;;11.20;99.90;;;;;;6244856;23;19903;-69
2022/03/16 04:43:01;;;;;;;;;;;11.20;99.90;;;;;;6245203;23;20323;-69
2022/03/16 04:45:27;;;;;;;;;;;11.20;99.90;;;;;;6244716;23;19903;-69
2022/03/16 04:47:52;;;;;;;;;;;11.20;99.90;;;;;;6245339;23;19904;-69
2022/03/16 04:50:18;;;;;;;;;;;11.20;99.90;;;;;;6245099;23;20224;-69
2022/03/16 04:52:45;;;;;;;;;;;11.20;99.90;;;;;;6245572;23;19908;-65
2022/03/16 04:55:12;;;;;;;;;;;11.30;99.90;;;;;;6245342;23;20232;-68
2022/03/16 04:57:38;;;;;;;;;;;11.30;99.90;;;;;;6245304;23;19924;-70
2022/03/16 05:00:04;;;;;;;;;;;11.40;99.90;;;;;;6244796;23;19903;-68
2022/03/16 05:02:32;;;;;;;;;;;11.30;99.90;;;;;;6244577;23;19908;-68
2022/03/16 05:04:58;;;;;;;;;;;11.40;99.90;;;;;;6243969;23;19904;-69
2022/03/16 05:07:24;;;;;;;;;;;11.40;99.90;;;;;;6244306;23;19919;-68
2022/03/16 05:09:50;;;;;;;;;;;11.30;99.90;;;;;;6244075;23;20300;-68
2022/03/16 05:12:16;;;;;;;;;;;11.20;99.90;;;;;;6244296;23;19903;-69
2022/03/16 05:14:41;;;;;;;;;;;11.20;99.90;;;;;;6243933;23;20347;-69
2022/03/16 05:17:07;;;;;;;;;;;11.20;99.90;;;;;;6245882;23;19915;-69
2022/03/16 05:19:34;;;;;;;;;;;11.20;99.90;;;;;;6246019;23;20219;-70
2022/03/16 05:25:02;;;;;;;;;;;11.10;99.90;;;;;;6245660;23;19911;-71
2022/03/16 05:27:28;;;;;;;;;;;11.20;99.90;;;;;;6245633;23;19912;-72
2022/03/16 05:29:54;;;;;;;;;;;11.20;99.90;;;;;;6246277;23;19911;-73
2022/03/16 05:32:20;;;;;;;;;;;11.30;99.90;;;;;;6246582;23;19915;-72
2022/03/16 05:34:45;;;;;;;;;;;11.30;99.90;;;;;;6247109;23;20320;-72
2022/03/16 05:37:11;;;;;;;;;;;11.30;99.90;;;;;;6247496;23;19990;-73
2022/03/16 05:39:37;;;;;;;;;;;11.40;99.90;;;;;;6247395;23;19911;-75
2022/03/16 05:42:03;;;;;;;;;;;11.40;99.90;;;;;;6248117;23;19911;-72
2022/03/16 05:44:29;;;;;;;;;;;11.50;99.90;;;;;;6247494;23;19911;-72
2022/03/16 05:46:57;;;;;;;;;;;11.50;99.90;;;;;;6247351;23;20004;-72
2022/03/16 05:49:25;;;;;;;;;;;11.50;99.90;;;;;;6220553;23;19904;-68
2022/03/16 05:51:51;;;;;;;;;;;11.50;99.90;;;;;;6247603;23;19907;-70
2022/03/16 05:54:17;;;;;;;;;;;11.50;99.90;;;;;;6247742;23;19935;-72
2022/03/16 05:56:43;;;;;;;;;;;11.60;99.90;;;;;;6247842;23;19919;-71
2022/03/16 05:59:09;;;;;;;;;;;11.60;99.90;;;;;;6248431;23;20305;-72
2022/03/16 06:01:35;;;;;;;;;;;11.50;99.90;;;;;;6247834;23;20260;-71
2022/03/16 06:04:00;;;;;;;;;;;11.60;99.90;;;;;;6247189;23;19914;-72
2022/03/16 06:06:29;;;;;;;;;;;11.60;99.90;;;;;;6247235;23;19915;-72
2022/03/16 06:08:55;;;;;;;;;;;11.50;99.90;;;;;;6247255;23;19904;-72
2022/03/16 06:11:20;;;;;;;;;;;11.50;99.90;;;;;;6247116;23;19961;-72
2022/03/16 06:13:46;;;;;;;;;;;11.50;99.90;;;;;;6247065;23;19907;-72
2022/03/16 06:16:12;;;;;;;;;;;11.50;99.90;;;;;;6247822;23;19911;-72
2022/03/16 06:18:38;;;;;;;;;;;11.50;99.90;;;;;;6247776;23;19904;-71
2022/03/16 06:21:04;;;;;;;;;;;11.50;99.90;;;;;;6247635;23;19903;-72
2022/03/16 06:23:30;;;;;;;;;;;11.50;99.90;;;;;;6248115;23;19946;-72
2022/03/16 06:25:56;;;;;;;;;;;11.60;99.90;;;;;;6247658;23;19991;-72
2022/03/16 06:28:21;;;;;;;;;;;11.70;99.90;;;;;;6246799;23;19904;-71
2022/03/16 06:30:47;;;;;;;;;;;11.70;99.90;;;;;;6245772;23;20272;-72
2022/03/16 06:33:13;;;;;;;;;;;11.80;99.90;;;;;;6246423;23;19903;-72
2022/03/16 06:35:41;;;;;;;;;;;11.80;99.90;;;;;;6245711;23;19904;-68
2022/03/16 06:38:09;;;;;;;;;;;11.80;99.90;;;;;;6246668;23;19904;-72
2022/03/16 06:40:35;;;;;;;;;;;11.70;99.90;;;;;;6218960;23;19923;-72
2022/03/16 06:43:01;;;;;;;;;;;11.80;99.90;;;;;;6246226;23;19923;-77
2022/03/16 06:45:28;;;;;;;;;;;11.80;99.90;;;;;;6245925;23;19903;-73
2022/03/16 06:47:54;;;;;;;;;;;11.90;99.90;;;;;;6244841;23;19911;-73
2022/03/16 06:50:20;;;;;;;;;;;12.00;99.90;;;;;;6244513;23;20037;-72
2022/03/16 06:52:46;;;;;;;;;;;11.90;99.90;;;;;;6245301;23;19911;-73
2022/03/16 06:55:13;;;;;;;;;;;12.00;99.90;;;;;;6244096;23;19921;-71
2022/03/16 06:57:41;;;;;;;;;;;12.10;99.90;;;;;;6243056;23;20322;-71
2022/03/16 07:00:08;;;;;;;;;;;12.10;99.90;;;;;;6244396;23;19911;-72
2022/03/16 07:02:53;;;;;;;;;;;12.20;99.90;;;;;;6244031;23;19904;-72
2022/03/16 07:05:20;;;;;;;;;;;12.20;99.90;;;;;;6244246;23;19933;-72
2022/03/16 07:07:46;;;;;;;;;;;12.30;99.90;;;;;;6217031;23;20265;-72
2022/03/16 07:10:12;;;;;;;;;;;12.40;99.90;;;;;;6244235;23;20334;-73
2022/03/16 07:12:37;;;;;;;;;;;12.50;99.90;;;;;;6244262;23;19913;-72
2022/03/16 07:15:03;;;;;;;;;;;12.60;99.90;;;;;;6244480;23;19986;-71
2022/03/16 07:17:29;;;;;;;;;;;12.70;99.90;;;;;;6245473;23;19915;-73
2022/03/16 07:19:55;;;;;;;;;;;12.70;99.90;;;;;;6245931;23;19904;-72
2022/03/16 07:22:21;;;;;;;;;;;12.70;99.90;;;;;;6246067;23;19998;-72
2022/03/16 07:24:47;;;;;;;;;;;12.70;99.90;;;;;;6245441;23;19931;-73
2022/03/16 07:27:13;;;;;;;;;;;12.80;99.90;;;;;;6245473;23;19934;-72
2022/03/16 07:29:39;;;;;;;;;;;12.80;99.90;;;;;;6245071;23;19926;-72
2022/03/16 07:32:05;;;;;;;;;;;12.80;99.90;;;;;;6245711;23;19923;-72
2022/03/16 07:34:31;;;;;;;;;;;12.70;99.90;;;;;;6245312;23;19910;-72
2022/03/16 07:36:57;;;;;;;;;;;12.60;99.90;;;;;;6245427;23;19931;-72
2022/03/16 07:39:23;;;;;;;;;;;12.60;99.90;;;;;;6246437;23;19904;-72
2022/03/16 07:41:49;;;;;;;;;;;12.60;99.90;;;;;;6245799;23;19958;-72
2022/03/16 07:44:15;;;;;;;;;;;12.60;99.90;;;;;;6245679;23;19927;-72
2022/03/16 07:46:41;;;;;;;;;;;12.60;99.90;;;;;;6245905;23;19961;-72
2022/03/16 07:49:13;;;;;;;;;;;12.60;99.90;;;;;;6218937;23;20317;-71
2022/03/16 07:51:38;;;;;;;;;;;12.70;99.90;;;;;;6245715;23;20177;-72
2022/03/16 07:54:04;;;;;;;;;;;12.70;99.90;;;;;;6245783;23;19910;-72
2022/03/16 07:56:31;;;;;;;;;;;12.90;99.90;;;;;;6245177;23;19914;-72
2022/03/16 07:59:01;;;;;;;;;;;13.00;99.90;;;;;;6246179;23;20268;-71
2022/03/16 08:01:27;;;;;;;;;;;13.20;99.90;;;;;;6245674;23;20266;-71
2022/03/16 08:03:53;;;;;;;;;;;13.40;99.90;;;;;;6245120;23;19904;-71
2022/03/16 08:06:19;;;;;;;;;;;13.30;99.90;;;;;;6244662;23;19994;-71
2022/03/16 08:08:45;;;;;;;;;;;13.40;99.90;;;;;;6245028;23;19985;-70
2022/03/16 08:11:11;;;;;;;;;;;13.50;99.90;;;;;;6245111;23;19918;-71
2022/03/16 08:13:37;;;;;;;;;;;13.60;99.90;;;;;;6245354;23;19938;-71
2022/03/16 08:16:03;;;;;;;;;;;13.70;99.90;;;;;;6245775;23;19903;-71
2022/03/16 08:18:29;;;;;;;;;;;13.50;99.90;;;;;;6245534;23;19930;-68
2022/03/16 08:20:56;;;;;;;;;;;13.50;99.90;;;;;;6246394;23;19903;-68
2022/03/16 08:23:22;;;;;;;;;;;13.40;99.90;;;;;;6245543;23;19914;-70
2022/03/16 08:25:48;;;;;;;;;;;13.40;99.90;;;;;;6245955;23;20289;-71
2022/03/16 08:28:14;;;;;;;;;;;13.20;99.90;;;;;;6245275;23;19904;-70
2022/03/16 08:30:40;;;;;;;;;;;13.20;99.90;;;;;;6218510;23;20017;-70
2022/03/16 08:33:06;;;;;;;;;;;13.30;99.90;;;;;;6244100;23;19903;-68
2022/03/16 08:35:32;;;;;;;;;;;13.40;99.90;;;;;;6244086;23;19910;-71
2022/03/16 08:37:59;;;;;;;;;;;13.50;99.90;;;;;;6244668;23;19904;-67
2022/03/16 08:40:25;;;;;;;;;;;13.70;99.90;;;;;;6245518;23;20232;-71
2022/03/16 08:42:52;;;;;;;;;;;13.80;99.90;;;;;;6245043;23;19908;-71
2022/03/16 08:45:20;;;;;;;;;;;13.80;99.90;;;;;;6245075;23;19904;-72
2022/03/16 08:47:46;;;;;;;;;;;13.70;99.90;;;;;;6244874;23;19919;-71
2022/03/16 08:50:12;;;;;;;;;;;13.80;99.90;;;;;;6245021;23;19904;-71
2022/03/16 08:52:38;;;;;;;;;;;13.90;99.90;;;;;;6243829;23;20297;-72
2022/03/16 08:55:07;;;;;;;;;;;14.30;99.90;;;;;;6242349;23;19957;-72
2022/03/16 08:57:33;;;;;;;;;;;14.40;99.90;;;;;;6243285;23;19916;-71
2022/03/16 08:59:59;;;;;;;;;;;14.50;99.90;;;;;;6243540;23;19958;-72
2022/03/16 09:02:24;;;;;;;;;;;14.30;99.90;;;;;;6243440;23;19903;-71
2022/03/16 09:04:52;;;;;;;;;;;14.10;99.90;;;;;;6243725;23;19903;-72
2022/03/16 09:07:18;;;;;;;;;;;14.10;99.90;;;;;;6244838;23;20312;-71
2022/03/16 09:09:44;;;;;;;;;;;14.30;99.90;;;;;;6246211;23;20059;-71
2022/03/16 09:12:11;;;;;;;;;;;14.50;99.90;;;;;;6246418;23;19904;-73
2022/03/16 09:14:37;;;;;;;;;;;14.80;99.90;;;;;;6246272;23;19926;-72
2022/03/16 09:17:03;;;;;;;;;;;14.80;99.90;;;;;;6246941;23;19911;-72
2022/03/16 09:19:29;;;;;;;;;;;14.90;99.90;;;;;;6247497;23;19939;-72
2022/03/16 09:21:55;;;;;;;;;;;15.10;99.90;;;;;;6247651;23;20151;-72
2022/03/16 09:24:24;;;;;;;;;;;15.00;99.90;;;;;;6247402;23;19961;-71
2022/03/16 09:26:50;;;;;;;;;;;15.00;99.90;;;;;;6219970;23;20212;-71
2022/03/16 09:29:16;;;;;;;;;;;15.00;99.90;;;;;;6247037;23;19904;-72
2022/03/16 09:31:44;;;;;;;;;;;15.00;99.90;;;;;;6247602;23;19908;-74
2022/03/16 09:34:10;;;;;;;;;;;15.20;99.90;;;;;;6247038;23;19910;-71
2022/03/16 09:36:45;;;;;;;;;;;15.30;99.90;;;;;;6247322;23;19982;-72
2022/03/16 09:39:11;;;;;;;;;;;15.20;99.90;;;;;;6247131;23;19999;-72
2022/03/16 09:41:37;;;;;;;;;;;15.20;99.90;;;;;;6246640;23;19939;-71
2022/03/16 09:44:04;;;;;;;;;;;15.20;99.90;;;;;;6247496;23;19904;-71
2022/03/16 09:46:34;;;;;;;;;;;15.30;99.90;;;;;;6247544;23;20228;-72
2022/03/16 09:48:59;;;;;;;;;;;15.50;99.90;;;;;;6246433;23;19927;-72
2022/03/16 09:51:26;;;;;;;;;;;15.40;99.90;;;;;;6247106;23;20216;-74
2022/03/16 09:53:52;;;;;;;;;;;15.50;99.90;;;;;;6246357;23;19904;-73
2022/03/16 09:56:19;;;;;;;;;;;15.50;99.90;;;;;;6246960;23;19903;-73
2022/03/16 09:58:45;;;;;;;;;;;15.40;99.90;;;;;;6245805;23;19916;-72
2022/03/16 10:01:11;;;;;;;;;;;15.30;99.90;;;;;;6246285;23;19914;-72
2022/03/16 10:03:37;;;;;;;;;;;15.40;99.90;;;;;;6246393;23;20320;-72
2022/03/16 10:06:06;;;;;;;;;;;15.60;99.90;;;;;;6247108;23;20229;-72
2022/03/16 10:08:34;;;;;;;;;;;15.50;99.90;;;;;;6246405;23;19903;-72
2022/03/16 10:14:05;;;;;;;;;;;15.50;99.90;;;;;;6246303;23;19950;-72
2022/03/16 10:17:43;;;;;;;;;;;15.50;99.90;;;;;;6246663;23;19903;-72
2022/03/16 10:19:19;;;;;;;;;;;15.60;99.90;;;;;;6244693;23;19903;-72
2022/03/16 10:22:04;;;;;;;;;;;15.70;99.90;;;;;;6246117;23;19978;-72
2022/03/16 10:24:30;;;;;;;;;;;15.60;99.90;;;;;;6246520;23;19927;-72
2022/03/16 10:26:58;;;;;;;;;;;15.50;99.90;;;;;;6245835;23;19912;-71
2022/03/16 10:29:27;;;;;;;;;;;15.70;99.90;;;;;;6246520;23;20196;-71
2022/03/16 10:32:02;;;;;;;;;;;15.70;99.90;;;;;;6245926;23;20308;-71
2022/03/16 10:34:28;;;;;;;;;;;15.60;99.90;;;;;;6218760;23;20309;-71
2022/03/16 10:36:54;;;;;;;;;;;15.50;99.90;;;;;;6246231;23;19910;-71
2022/03/16 10:39:31;;;;;;;;;;;15.40;99.90;;;;;;6246164;23;19919;-72
2022/03/16 10:47:49;;;;;;;;;;;15.30;99.90;;;;;;6246529;23;20002;-71
2022/03/16 10:50:15;;;;;;;;;;;15.40;99.90;;;;;;6246217;23;19904;-72
2022/03/16 10:52:41;;;;;;;;;;;15.50;99.90;;;;;;6245638;23;19990;-86
2022/03/16 10:55:07;;;;;;;;;;;15.60;99.90;;;;;;6245544;23;19908;-72
2022/03/16 10:57:34;;;;;;;;;;;15.60;99.90;;;;;;6244786;23;19916;-71
2022/03/16 11:00:01;;;;;;;;;;;15.60;99.90;;;;;;6245063;23;19935;-72
2022/03/16 11:02:33;;;;;;;;;;;15.70;99.90;;;;;;6244558;23;20288;-72
2022/03/16 11:05:01;;;;;;;;;;;15.90;99.90;;;;;;6244637;23;19904;-72
2022/03/16 11:07:27;;;;;;;;;;;15.60;99.90;;;;;;6244688;23;19912;-68
2022/03/16 11:09:54;;;;;;;;;;;15.60;99.90;;;;;;6244574;23;19903;-71
2022/03/16 11:15:06;;;;;;;;;;;15.60;99.90;;;;;;6245261;23;19926;-71
2022/03/16 11:17:34;;;;;;;;;;;15.40;99.90;;;;;;6244433;23;20285;-71
2022/03/16 11:20:02;;;;;;;;;;;15.60;99.90;;;;;;6244612;23;19910;-72
2022/03/16 11:22:32;;;;;;;;;;;15.60;99.90;;;;;;6245054;23;19910;-71
2022/03/16 11:25:04;;;;;;;;;;;15.70;99.90;;;;;;6244953;23;19915;-71
2022/03/16 11:27:30;;;;;;;;;;;15.70;99.90;;;;;;6245161;23;19924;-73
2022/03/16 11:30:14;;;;;;;;;;;15.90;99.90;;;;;;6245392;23;20010;-72
2022/03/16 11:32:41;;;;;;;;;;;15.80;99.90;;;;;;6246058;23;19904;-72
2022/03/16 11:35:12;;;;;;;;;;;16.00;99.90;;;;;;6218234;23;19950;-71
2022/03/16 11:37:40;;;;;;;;;;;15.90;99.90;;;;;;6245539;23;19903;-71
2022/03/16 11:40:09;;;;;;;;;;;15.80;99.90;;;;;;6245383;23;19903;-73
2022/03/16 11:42:36;;;;;;;;;;;15.70;99.90;;;;;;6245166;23;20295;-72
2022/03/16 11:45:21;;;;;;;;;;;15.70;99.90;;;;;;6245317;23;19907;-71
2022/03/16 11:47:47;;;;;;;;;;;15.90;99.90;;;;;;6245576;23;19915;-72
2022/03/16 11:50:14;;;;;;;;;;;16.10;99.90;;;;;;6245182;23;19994;-71
2022/03/16 11:52:56;;;;;;;;;;;15.90;99.90;;;;;;6245268;23;20258;-72
2022/03/16 11:55:42;;;;;;;;;;;15.70;99.90;;;;;;6245887;23;19950;-71
2022/03/16 11:58:15;;;;;;;;;;;15.90;99.90;;;;;;6244064;23;20003;-71
2022/03/16 12:00:41;;;;;;;;;;;16.10;99.90;;;;;;6244503;23;19904;-71
2022/03/16 12:03:07;;;;;;;;;;;16.10;99.90;;;;;;6244721;23;19903;-71
2022/03/16 12:05:51;;;;;;;;;;;16.40;99.90;;;;;;6245103;23;20232;-70
2022/03/16 12:08:16;;;;;;;;;;;16.50;99.90;;;;;;6244970;23;19990;-71
2022/03/16 12:10:46;;;;;;;;;;;16.40;99.90;;;;;;6245208;23;19904;-71
2022/03/16 12:13:14;;;;;;;;;;;16.20;99.90;;;;;;6244172;23;19907;-71
2022/03/16 12:15:42;;;;;;;;;;;16.30;99.90;;;;;;6243038;23;19910;-72
2022/03/16 12:18:14;;;;;;;;;;;16.40;99.90;;;;;;6217312;23;20321;-72
2022/03/16 12:20:43;;;;;;;;;;;16.40;99.90;;;;;;6217883;23;19904;-73
2022/03/16 12:23:10;;;;;;;;;;;16.40;99.90;;;;;;6244632;23;19982;-72
2022/03/16 12:25:37;;;;;;;;;;;16.30;99.90;;;;;;6245328;23;19904;-72
2022/03/16 12:30:52;;;;;;;;;;;16.30;99.90;;;;;;6245557;23;20355;-72
2022/03/16 12:33:22;;;;;;;;;;;16.10;99.90;;;;;;6244968;23;19903;-73
2022/03/16 12:35:51;;;;;;;;;;;16.20;99.90;;;;;;6245599;23;19982;-72
2022/03/16 12:38:17;;;;;;;;;;;16.00;99.90;;;;;;6245354;23;19939;-71
2022/03/16 12:43:28;;;;;;;;;;;16.20;99.90;;;;;;6245347;23;20032;-72
2022/03/16 12:46:02;;;;;;;;;;;16.20;99.90;;;;;;6244852;23;19904;-72
2022/03/16 12:48:33;;;;;;;;;;;16.10;99.90;;;;;;6245094;23;20309;-72
2022/03/16 12:50:59;;;;;;;;;;;16.10;99.90;;;;;;6244765;23;19927;-73
2022/03/16 12:53:39;;;;;;;;;;;16.10;99.90;;;;;;6244941;23;19935;-73
2022/03/16 12:56:08;;;;;;;;;;;16.20;99.90;;;;;;6244621;23;19904;-73
2022/03/16 12:58:35;;;;;;;;;;;16.30;99.90;;;;;;6244289;23;19959;-74
2022/03/16 13:01:01;;;;;;;;;;;16.30;99.90;;;;;;6243865;23;19903;-75
2022/03/16 13:03:27;;;;;;;;;;;16.20;99.90;;;;;;6244742;23;19904;-74
2022/03/16 13:05:52;;;;;;;;;;;16.10;99.90;;;;;;6245575;23;20304;-74
2022/03/16 13:08:19;;;;;;;;;;;16.00;99.90;;;;;;6245325;23;19969;-73
2022/03/16 13:13:29;;;;;;;;;;;16.30;99.90;;;;;;6245870;23;19910;-73
2022/03/16 13:15:57;;;;;;;;;;;16.70;99.90;;;;;;6245363;23;19904;-74
2022/03/16 13:18:29;;;;;;;;;;;16.80;99.90;;;;;;6245796;23;20265;-73
2022/03/16 13:20:55;;;;;;;;;;;17.20;99.90;;;;;;6218680;23;20311;-72
2022/03/16 13:23:32;;;;;;;;;;;17.10;99.90;;;;;;6245665;23;19908;-73
2022/03/16 13:26:10;;;;;;;;;;;17.10;99.90;;;;;;6245358;23;19910;-72
2022/03/16 13:28:39;;;;;;;;;;;16.60;99.90;;;;;;6245925;23;19903;-72
2022/03/16 13:31:05;;;;;;;;;;;16.30;99.90;;;;;;6245495;23;19910;-72
2022/03/16 13:33:32;;;;;;;;;;;16.40;99.90;;;;;;6246224;23;19936;-73
2022/03/16 13:36:08;;;;;;;;;;;16.40;99.90;;;;;;6245521;23;19991;-72
2022/03/16 13:38:36;;;;;;;;;;;16.30;99.90;;;;;;6245786;23;19911;-73
2022/03/16 13:41:14;;;;;;;;;;;16.10;99.90;;;;;;6245507;23;19915;-72
2022/03/16 13:43:41;;;;;;;;;;;16.00;99.90;;;;;;6218556;23;19915;-72
2022/03/16 13:46:11;;;;;;;;;;;16.00;99.90;;;;;;6245304;23;19969;-73
2022/03/16 13:48:37;;;;;;;;;;;16.00;99.90;;;;;;6245493;23;19938;-74
2022/03/16 13:51:07;;;;;;;;;;;16.00;99.90;;;;;;6245317;23;19910;-74
2022/03/16 13:53:48;;;;;;;;;;;16.10;99.90;;;;;;6246497;23;20277;-74
2022/03/16 13:56:17;;;;;;;;;;;16.40;99.90;;;;;;6246860;23;19904;-73
2022/03/16 13:58:43;;;;;;;;;;;16.40;99.90;;;;;;6246373;23;19915;-73
2022/03/16 14:01:18;;;;;;;;;;;16.30;99.90;;;;;;6246445;23;19908;-72
2022/03/16 14:03:44;;;;;;;;;;;16.40;99.90;;;;;;6247096;23;19904;-72
2022/03/16 14:06:13;;;;;;;;;;;16.50;99.90;;;;;;6246589;23;19919;-73
2022/03/16 14:08:39;;;;;;;;;;;16.40;99.90;;;;;;6246674;23;19904;-73
2022/03/16 14:11:05;;;;;;;;;;;16.40;99.90;;;;;;6219788;23;19930;-73
2022/03/16 14:13:40;;;;;;;;;;;16.40;99.90;;;;;;6247099;23;19904;-73
2022/03/16 14:16:10;;;;;;;;;;;16.50;99.90;;;;;;6247076;23;19991;-73
2022/03/16 14:18:36;;;;;;;;;;;16.60;99.90;;;;;;6219870;23;19927;-73
2022/03/16 14:21:02;;;;;;;;;;;16.60;99.90;;;;;;6247332;23;20309;-74
2022/03/16 14:23:30;;;;;;;;;;;16.70;99.90;;;;;;6247075;23;19903;-74
2022/03/16 14:26:47;;;;;;;;;;;16.80;99.90;;;;;;6247056;23;19904;-69
2022/03/16 14:29:13;;;;;;;;;;;16.50;99.90;;;;;;6247007;23;19904;-75
2022/03/16 14:31:40;;;;;;;;;;;16.20;99.90;;;;;;6218238;23;19910;-77
2022/03/16 14:34:07;;;;;;;;;;;16.30;99.90;;;;;;6245456;23;19904;-75
2022/03/16 14:36:33;;;;;;;;;;;16.10;99.90;;;;;;6247111;23;19903;-73
2022/03/16 14:38:59;;;;;;;;;;;16.10;99.90;;;;;;6247762;23;20312;-75